Time;durP1;ratioP1;P1;durP2;ratioP2;P2;SDS_P1;SDS_P2;PMS_P1;PMS_P2;Temp;Humidity;BMP_temperature;BMP_pressure;BME280_temperature;BME280_humidity;BME280_pressure;Samples;Min_cycle;Max_cycle;Signal;HPM_P1;HPM_P2
2022/06/27 00:00:09;;;;;;;374.63;267.20;;;;;;;21.79;91.81;99707.34;411753;24;1253;-75
2022/06/27 00:00:20;;;;;;;374.67;267.63;;;;;;;21.79;92.13;99711.81;411465;24;1305;-75
2022/06/27 00:00:30;;;;;;;375.52;266.40;;;;;;;21.79;92.14;99706.50;411873;24;856;-75
2022/06/27 00:00:40;;;;;;;376.97;265.43;;;;;;;21.78;91.85;99708.31;411683;24;831;-75
2022/06/27 00:00:51;;;;;;;375.63;263.65;;;;;;;21.77;91.69;99706.63;411885;24;770;-75
2022/06/27 00:01:02;;;;;;;373.07;264.33;;;;;;;21.80;91.75;99713.50;411811;24;995;-75
2022/06/27 00:01:12;;;;;;;372.90;269.15;;;;;;;21.80;91.65;99708.19;411503;24;1233;-75
2022/06/27 00:01:22;;;;;;;374.17;270.92;;;;;;;21.79;91.90;99711.81;413837;23;890;-75
2022/06/27 00:01:33;;;;;;;374.73;271.10;;;;;;;21.81;91.58;99707.22;409909;24;885;-75
2022/06/27 00:01:43;;;;;;;370.17;262.60;;;;;;;21.81;91.80;99712.53;410028;24;811;-75
2022/06/27 00:01:54;;;;;;;366.65;261.98;;;;;;;21.81;91.60;99709.88;411635;24;1401;-75
2022/06/27 00:02:04;;;;;;;364.37;262.00;;;;;;;21.81;91.95;99715.22;411819;24;935;-75
2022/06/27 00:02:14;;;;;;;366.15;264.55;;;;;;;21.83;91.50;99710.59;410099;24;875;-75
2022/06/27 00:02:25;;;;;;;366.30;264.17;;;;;;;21.83;91.98;99713.25;409887;24;831;-75
2022/06/27 00:02:38;;;;;;;367.40;260.52;;;;;;;21.83;91.92;99707.94;408204;24;787;-75
2022/06/27 00:02:48;;;;;;;365.55;257.83;;;;;;;21.82;91.83;99711.56;409616;24;1426;-75
2022/06/27 00:02:59;;;;;;;365.30;259.87;;;;;;;21.82;91.46;99717.75;407840;24;1064;-75
2022/06/27 00:03:09;;;;;;;365.33;261.95;;;;;;;21.82;91.59;99714.22;409887;24;1219;-75
2022/06/27 00:03:20;;;;;;;366.33;264.67;;;;;;;21.81;91.47;99708.06;409984;24;827;-75
2022/06/27 00:03:30;;;;;;;364.17;262.13;;;;;;;21.81;91.60;99717.88;409843;24;1243;-75
2022/06/27 00:03:40;;;;;;;365.33;263.02;;;;;;;21.82;91.71;99712.41;409966;24;850;-75
2022/06/27 00:03:51;;;;;;;365.27;260.93;;;;;;;21.83;91.38;99705.25;407939;24;1434;-75
2022/06/27 00:04:01;;;;;;;364.38;261.00;;;;;;;21.83;91.44;99714.09;409759;24;1306;-77
2022/06/27 00:04:12;;;;;;;364.70;261.93;;;;;;;21.83;91.68;99710.59;407974;24;847;-76
2022/06/27 00:04:22;;;;;;;367.08;264.83;;;;;;;21.83;91.37;99715.91;408165;24;1260;-76
2022/06/27 00:04:32;;;;;;;367.67;263.43;;;;;;;21.82;91.49;99711.56;407869;24;767;-75
2022/06/27 00:04:43;;;;;;;366.85;261.95;;;;;;;21.82;91.50;99711.56;407913;24;1334;-75
2022/06/27 00:04:53;;;;;;;367.63;261.10;;;;;;;21.81;91.72;99710.72;407915;24;852;-75
2022/06/27 00:05:04;;;;;;;368.37;262.33;;;;;;;21.82;91.69;99709.75;409800;24;1000;-75
2022/06/27 00:05:15;;;;;;;369.13;265.00;;;;;;;21.82;91.66;99711.56;409502;24;1255;-75
2022/06/27 00:05:25;;;;;;;368.35;267.33;;;;;;;21.82;91.55;99714.22;411755;24;1300;-75
2022/06/27 00:05:36;;;;;;;368.27;266.83;;;;;;;21.81;91.67;99712.53;411881;24;825;-75
2022/06/27 00:05:46;;;;;;;365.98;266.00;;;;;;;21.81;91.65;99712.53;409905;24;854;-75
2022/06/27 00:05:56;;;;;;;364.70;263.70;;;;;;;21.82;91.24;99714.22;409918;24;1209;-75
2022/06/27 00:06:07;;;;;;;361.70;260.60;;;;;;;21.83;91.43;99710.59;409922;24;1056;-75
2022/06/27 00:06:21;;;;;;;363.07;259.40;;;;;;;21.84;91.38;99714.94;409765;24;866;-75
2022/06/27 00:06:31;;;;;;;363.20;260.85;;;;;;;21.84;91.91;99712.28;410072;24;898;-75
2022/06/27 00:06:42;;;;;;;363.90;262.55;;;;;;;21.82;91.85;99712.41;409802;24;1195;-76
2022/06/27 00:06:52;;;;;;;364.77;264.13;;;;;;;21.79;91.60;99706.50;411885;24;877;-76
2022/06/27 00:07:02;;;;;;;365.30;265.77;;;;;;;21.77;91.80;99711.13;411453;24;1175;-76
2022/06/27 00:07:13;;;;;;;363.30;264.98;;;;;;;21.78;91.85;99712.81;407194;24;890;-76
2022/06/27 00:07:23;;;;;;;364.40;265.20;;;;;;;21.77;92.02;99714.63;410008;24;845;-76
2022/06/27 00:07:34;;;;;;;367.95;266.52;;;;;;;21.78;92.09;99718.13;409776;24;783;-76
2022/06/27 00:07:44;;;;;;;368.00;263.90;;;;;;;21.78;91.70;99712.81;408013;24;863;-76
2022/06/27 00:07:55;;;;;;;367.15;262.73;;;;;;;21.77;92.13;99708.44;409682;24;1941;-76
2022/06/27 00:08:05;;;;;;;365.27;263.63;;;;;;;21.78;92.11;99715.47;409950;24;767;-76
2022/06/27 00:08:16;;;;;;;367.65;264.73;;;;;;;21.78;92.05;99707.47;407965;24;1195;-76
2022/06/27 00:08:26;;;;;;;367.53;263.13;;;;;;;21.77;92.21;99711.13;411926;24;798;-76
2022/06/27 00:08:36;;;;;;;370.10;261.00;;;;;;;21.75;92.71;99721.06;411708;24;1370;-76
2022/06/27 00:08:48;;;;;;;369.50;261.13;;;;;;;21.77;92.29;99721.78;411686;24;798;-75
2022/06/27 00:08:59;;;;;;;370.33;262.85;;;;;;;21.77;92.17;99714.63;411853;24;829;-75
2022/06/27 00:09:09;;;;;;;368.88;265.00;;;;;;;21.77;91.60;99711.13;409774;24;1332;-75
2022/06/27 00:09:19;;;;;;;365.75;264.80;;;;;;;21.77;92.40;99711.13;409861;24;1187;-75
2022/06/27 00:09:30;;;;;;;367.40;265.80;;;;;;;21.77;92.63;99705.78;413527;23;738;-75
2022/06/27 00:09:41;;;;;;;368.33;266.58;;;;;;;21.76;92.32;99715.59;413542;23;1326;-75
2022/06/27 00:09:51;;;;;;;369.98;266.88;;;;;;;21.74;92.26;99709.56;411807;24;1175;-75
2022/06/27 00:10:02;;;;;;;368.33;265.57;;;;;;;21.73;92.34;99709.69;411712;24;1086;-75
2022/06/27 00:10:12;;;;;;;366.05;263.15;;;;;;;21.73;92.58;99715.84;411729;24;858;-75
2022/06/27 00:10:23;;;;;;;364.97;259.53;;;;;;;21.73;92.66;99715.84;409988;24;879;-76
2022/06/27 00:10:33;;;;;;;366.60;260.48;;;;;;;21.75;92.16;99715.72;409907;24;865;-76
2022/06/27 00:10:44;;;;;;;367.43;265.97;;;;;;;21.75;92.59;99718.38;410053;24;818;-76
2022/06/27 00:10:54;;;;;;;367.45;268.33;;;;;;;21.74;92.19;99706.88;411634;24;1395;-76
2022/06/27 00:11:05;;;;;;;367.90;270.90;;;;;;;21.73;92.84;99717.69;409936;24;966;-76
2022/06/27 00:11:16;;;;;;;366.42;267.30;;;;;;;21.74;92.48;99716.69;407877;24;1218;-75
2022/06/27 00:11:26;;;;;;;366.73;268.40;;;;;;;21.75;92.77;99718.38;407985;24;997;-75
2022/06/27 00:11:37;;;;;;;365.00;261.53;;;;;;;21.74;92.24;99716.69;408095;24;1185;-75
2022/06/27 00:11:47;;;;;;;365.47;261.23;;;;;;;21.74;92.45;99716.69;407974;24;742;-75
2022/06/27 00:11:59;;;;;;;365.40;262.53;;;;;;;21.74;92.22;99716.69;409998;24;1068;-75
2022/06/27 00:12:10;;;;;;;365.35;262.33;;;;;;;21.73;92.60;99715.00;413724;23;945;-75
2022/06/27 00:12:20;;;;;;;365.55;260.90;;;;;;;21.73;92.18;99717.69;409900;24;888;-75
2022/06/27 00:12:31;;;;;;;365.08;259.63;;;;;;;21.72;92.20;99718.66;409790;24;1224;-75
2022/06/27 00:12:41;;;;;;;364.77;261.17;;;;;;;21.73;91.89;99717.69;411813;24;806;-75
2022/06/27 00:12:52;;;;;;;363.93;260.43;;;;;;;21.72;92.35;99713.31;409961;24;842;-75
2022/06/27 00:13:02;;;;;;;363.77;256.40;;;;;;;21.73;91.95;99715.00;411796;24;876;-75
2022/06/27 00:13:12;;;;;;;366.47;260.37;;;;;;;21.73;92.31;99715.00;411969;24;808;-75
2022/06/27 00:13:23;;;;;;;368.58;264.30;;;;;;;21.73;92.34;99715.84;411733;24;1039;-75
2022/06/27 00:13:33;;;;;;;370.73;269.33;;;;;;;21.73;91.99;99720.34;411776;24;814;-75
2022/06/27 00:13:44;;;;;;;369.13;268.48;;;;;;;21.73;92.30;99715.00;409955;24;775;-75
2022/06/27 00:13:55;;;;;;;369.50;267.98;;;;;;;21.74;92.01;99722.03;409600;24;1535;-75
2022/06/27 00:14:05;;;;;;;370.60;269.60;;;;;;;21.73;92.00;99721.19;410081;24;1183;-75
2022/06/27 00:14:16;;;;;;;371.83;269.30;;;;;;;21.74;92.18;99716.69;408002;24;857;-75
2022/06/27 00:14:27;;;;;;;371.10;269.30;;;;;;;21.73;91.91;99715.84;407992;24;911;-75
2022/06/27 00:14:37;;;;;;;369.63;265.90;;;;;;;21.73;92.16;99718.53;409642;24;783;-75
2022/06/27 00:14:48;;;;;;;370.30;261.52;;;;;;;21.71;92.14;99717.81;409789;24;1005;-75
2022/06/27 00:14:58;;;;;;;369.23;259.57;;;;;;;21.73;91.93;99715.00;409894;24;812;-75
2022/06/27 00:15:09;;;;;;;371.80;260.70;;;;;;;21.73;91.85;99715.00;409670;24;883;-75
2022/06/27 00:15:20;;;;;;;373.05;263.35;;;;;;;21.72;91.91;99716.84;411811;24;900;-75
2022/06/27 00:15:30;;;;;;;372.53;264.23;;;;;;;21.71;92.12;99712.47;411786;24;862;-75
2022/06/27 00:15:41;;;;;;;369.27;263.77;;;;;;;21.71;91.82;99716.97;409771;24;1291;-75
2022/06/27 00:15:51;;;;;;;370.47;266.37;;;;;;;21.70;91.77;99721.44;409758;24;1290;-75
2022/06/27 00:16:02;;;;;;;369.10;264.17;;;;;;;21.69;92.47;99711.75;413351;23;1205;-75
2022/06/27 00:16:12;;;;;;;367.73;263.50;;;;;;;21.69;92.57;99721.56;413546;23;1002;-75
2022/06/27 00:16:23;;;;;;;367.48;264.58;;;;;;;21.68;93.11;99717.22;410552;24;1325;-75
2022/06/27 00:16:33;;;;;;;367.90;266.95;;;;;;;21.69;92.70;99718.91;409626;24;800;-76
2022/06/27 00:16:43;;;;;;;370.87;265.33;;;;;;;21.69;93.07;99719.75;411695;24;1210;-75
2022/06/27 00:16:54;;;;;;;369.63;264.07;;;;;;;21.69;92.89;99716.25;413627;23;955;-75
2022/06/27 00:17:04;;;;;;;369.10;260.75;;;;;;;21.69;92.96;99724.25;411660;24;1058;-75
2022/06/27 00:17:15;;;;;;;365.00;258.10;;;;;;;21.71;93.14;99716.97;409838;24;968;-76
2022/06/27 00:17:27;;;;;;;365.27;255.95;;;;;;;21.71;93.16;99716.97;407896;24;1259;-76
2022/06/27 00:17:39;;;;;;;364.88;257.42;;;;;;;21.71;93.37;99716.97;411701;24;1397;-76
2022/06/27 00:17:49;;;;;;;365.13;258.58;;;;;;;21.73;92.78;99720.34;409869;24;858;-76
2022/06/27 00:18:00;;;;;;;364.05;257.00;;;;;;;21.72;92.62;99719.50;409815;24;1473;-76
2022/06/27 00:18:11;;;;;;;366.13;260.07;;;;;;;21.72;93.23;99713.31;409574;24;1223;-76
2022/06/27 00:18:21;;;;;;;364.73;257.60;;;;;;;21.74;92.56;99716.69;413741;23;1079;-75
2022/06/27 00:18:32;;;;;;;366.92;258.98;;;;;;;21.74;92.86;99719.38;411720;24;1274;-75
2022/06/27 00:18:42;;;;;;;366.17;258.73;;;;;;;21.75;92.76;99718.38;409746;24;1223;-75
2022/06/27 00:18:53;;;;;;;369.00;266.23;;;;;;;21.76;92.69;99720.94;410053;24;901;-75
2022/06/27 00:19:03;;;;;;;368.00;266.67;;;;;;;21.77;92.82;99711.13;407927;24;1330;-76
2022/06/27 00:19:13;;;;;;;367.70;267.03;;;;;;;21.78;93.33;99713.66;409922;24;902;-76
2022/06/27 00:19:24;;;;;;;368.05;262.05;;;;;;;21.79;93.16;99714.50;409955;24;878;-76
2022/06/27 00:19:34;;;;;;;367.37;260.10;;;;;;;21.79;93.47;99722.50;409713;24;1454;-76
2022/06/27 00:19:44;;;;;;;369.35;262.25;;;;;;;21.77;93.10;99711.97;409864;24;903;-76
2022/06/27 00:19:55;;;;;;;366.53;259.30;;;;;;;21.77;93.52;99719.94;407908;24;944;-76
2022/06/27 00:20:06;;;;;;;366.93;258.73;;;;;;;21.74;93.48;99714.03;409900;24;838;-75
2022/06/27 00:20:16;;;;;;;362.63;253.90;;;;;;;21.75;92.88;99707.72;411715;24;841;-75
2022/06/27 00:20:26;;;;;;;361.80;254.48;;;;;;;21.73;93.08;99712.34;411931;24;815;-75
2022/06/27 00:20:37;;;;;;;364.53;258.97;;;;;;;21.73;92.80;99707.03;409744;24;758;-75
2022/06/27 00:20:47;;;;;;;368.55;262.75;;;;;;;21.73;92.77;99715.00;409831;24;789;-75
2022/06/27 00:20:58;;;;;;;368.33;260.70;;;;;;;21.73;92.72;99710.53;409656;24;1469;-75
2022/06/27 00:21:08;;;;;;;366.03;255.83;;;;;;;21.73;92.70;99715.00;411583;24;1263;-75
2022/06/27 00:21:19;;;;;;;362.35;251.63;;;;;;;21.72;92.80;99711.50;409904;24;2125;-75
2022/06/27 00:21:29;;;;;;;363.07;255.73;;;;;;;21.73;92.25;99713.19;411642;24;1479;-75
2022/06/27 00:21:39;;;;;;;362.20;257.65;;;;;;;21.72;92.49;99710.66;409789;24;1213;-75
2022/06/27 00:21:50;;;;;;;363.33;258.40;;;;;;;21.73;92.70;99715.84;409983;24;1578;-75
2022/06/27 00:22:00;;;;;;;363.80;257.77;;;;;;;21.74;92.52;99722.03;411635;24;1183;-75
2022/06/27 00:22:11;;;;;;;364.00;256.90;;;;;;;21.75;92.42;99713.06;411760;24;1229;-75
2022/06/27 00:22:21;;;;;;;362.83;256.87;;;;;;;21.75;92.71;99707.72;413668;23;824;-75
2022/06/27 00:22:31;;;;;;;361.37;256.83;;;;;;;21.73;92.68;99705.19;413830;23;931;-75
2022/06/27 00:22:42;;;;;;;360.70;255.37;;;;;;;21.75;92.51;99711.25;411830;24;791;-75
2022/06/27 00:22:53;;;;;;;361.40;256.90;;;;;;;21.75;92.19;99702.41;409866;24;1298;-75
2022/06/27 00:23:03;;;;;;;361.40;252.40;;;;;;;21.77;92.31;99711.13;411734;24;811;-75
2022/06/27 00:23:13;;;;;;;362.50;253.07;;;;;;;21.77;92.38;99705.78;409668;24;1228;-75
2022/06/27 00:23:24;;;;;;;363.60;254.13;;;;;;;21.77;92.58;99706.63;409825;24;1568;-75
2022/06/27 00:23:36;;;;;;;363.70;259.08;;;;;;;21.77;92.04;99706.63;411708;24;1277;-75
2022/06/27 00:23:46;;;;;;;365.65;261.30;;;;;;;21.77;92.14;99705.78;407768;24;1283;-75
2022/06/27 00:23:56;;;;;;;365.63;260.03;;;;;;;21.78;92.31;99712.81;406023;24;1235;-75
2022/06/27 00:24:07;;;;;;;367.45;261.45;;;;;;;21.77;92.51;99705.78;407982;24;863;-75
2022/06/27 00:24:17;;;;;;;366.00;257.43;;;;;;;21.75;92.07;99697.91;409750;24;1483;-75
2022/06/27 00:24:28;;;;;;;366.77;257.55;;;;;;;21.77;92.01;99708.44;413615;23;1285;-75
2022/06/27 00:24:38;;;;;;;367.70;258.70;;;;;;;21.77;92.13;99711.13;413563;23;1286;-76
2022/06/27 00:24:49;;;;;;;370.90;263.03;;;;;;;21.76;92.41;99710.28;411716;24;794;-76
2022/06/27 00:24:59;;;;;;;370.60;262.65;;;;;;;21.75;92.76;99702.41;413661;23;1413;-76
2022/06/27 00:25:10;;;;;;;368.87;260.57;;;;;;;21.75;92.57;99707.72;413702;23;722;-76
2022/06/27 00:25:20;;;;;;;368.60;262.10;;;;;;;21.76;92.52;99710.28;411658;24;1400;-76
2022/06/27 00:25:30;;;;;;;368.27;262.83;;;;;;;21.74;92.66;99701.56;408944;24;810;-76
2022/06/27 00:25:41;;;;;;;367.77;262.15;;;;;;;21.75;92.54;99700.59;409159;24;1357;-76
2022/06/27 00:25:51;;;;;;;371.10;262.63;;;;;;;21.76;92.59;99715.59;407879;24;1243;-76
2022/06/27 00:26:01;;;;;;;368.48;259.65;;;;;;;21.75;92.70;99697.06;407933;24;858;-76
2022/06/27 00:26:12;;;;;;;370.73;260.77;;;;;;;21.75;92.81;99707.72;407856;24;1295;-76
2022/06/27 00:26:22;;;;;;;364.27;255.17;;;;;;;21.75;92.58;99705.91;407599;24;1161;-76
2022/06/27 00:26:33;;;;;;;366.73;259.48;;;;;;;21.77;92.32;99705.78;409167;24;882;-76
2022/06/27 00:26:43;;;;;;;362.27;255.63;;;;;;;21.75;92.38;99705.06;409786;24;1211;-75
2022/06/27 00:26:53;;;;;;;367.20;260.05;;;;;;;21.76;92.38;99704.94;409803;24;889;-75
2022/06/27 00:27:04;;;;;;;365.03;256.27;;;;;;;21.75;92.13;99708.56;411859;24;1194;-75
2022/06/27 00:27:15;;;;;;;366.70;257.08;;;;;;;21.75;92.42;99699.75;409607;24;1235;-75
2022/06/27 00:27:25;;;;;;;364.97;255.57;;;;;;;21.75;92.63;99707.72;406920;24;850;-76
2022/06/27 00:27:36;;;;;;;366.50;259.20;;;;;;;21.73;92.61;99704.34;409037;24;1208;-76
2022/06/27 00:27:46;;;;;;;368.95;260.40;;;;;;;21.74;92.35;99700.72;413566;23;1329;-76
2022/06/27 00:27:57;;;;;;;370.03;258.63;;;;;;;21.75;92.63;99707.72;413826;23;1898;-76
2022/06/27 00:28:07;;;;;;;371.90;256.50;;;;;;;21.74;92.71;99711.38;409630;24;898;-76
2022/06/27 00:28:18;;;;;;;369.43;257.53;;;;;;;21.74;92.80;99701.56;409837;24;1628;-76
2022/06/27 00:28:28;;;;;;;370.17;261.77;;;;;;;21.73;92.53;99704.34;411605;24;818;-76
2022/06/27 00:28:39;;;;;;;368.58;265.40;;;;;;;21.73;92.73;99704.34;409764;24;858;-76
2022/06/27 00:28:49;;;;;;;367.15;264.75;;;;;;;21.71;92.90;99709.81;411890;24;803;-76
2022/06/27 00:28:59;;;;;;;368.20;263.93;;;;;;;21.72;92.74;99713.31;409771;24;967;-76
2022/06/27 00:29:10;;;;;;;369.17;262.90;;;;;;;21.71;92.67;99708.97;409947;24;906;-76
2022/06/27 00:29:20;;;;;;;370.42;262.65;;;;;;;21.71;92.85;99712.47;408042;24;755;-76
2022/06/27 00:29:31;;;;;;;370.30;263.33;;;;;;;21.72;93.18;99706.19;407799;24;901;-76
2022/06/27 00:29:42;;;;;;;367.88;262.55;;;;;;;21.71;92.74;99701.81;407961;24;791;-76
2022/06/27 00:29:52;;;;;;;367.30;263.63;;;;;;;21.71;92.95;99709.81;407927;24;1011;-76
2022/06/27 00:30:03;;;;;;;368.97;263.83;;;;;;;21.73;92.89;99707.03;407959;24;843;-76
2022/06/27 00:30:14;;;;;;;370.52;265.98;;;;;;;21.72;92.68;99708.00;409824;24;810;-76
2022/06/27 00:30:24;;;;;;;369.20;265.08;;;;;;;21.72;92.71;99714.16;408097;24;1282;-76
2022/06/27 00:30:34;;;;;;;366.07;265.87;;;;;;;21.73;92.93;99707.03;407921;24;753;-76
2022/06/27 00:30:45;;;;;;;366.20;263.90;;;;;;;21.72;93.01;99710.66;409722;24;803;-76
2022/06/27 00:30:55;;;;;;;367.67;263.37;;;;;;;21.73;93.10;99701.69;411859;24;1268;-76
2022/06/27 00:31:06;;;;;;;367.63;264.05;;;;;;;21.73;92.86;99701.69;411754;24;872;-76
2022/06/27 00:31:16;;;;;;;366.80;265.67;;;;;;;21.73;92.73;99707.03;407686;24;1203;-76
2022/06/27 00:31:27;;;;;;;366.13;264.40;;;;;;;21.72;92.61;99713.31;407938;24;870;-76
2022/06/27 00:31:37;;;;;;;365.13;260.53;;;;;;;21.72;92.54;99710.66;406199;24;797;-76
2022/06/27 00:31:47;;;;;;;363.33;257.30;;;;;;;21.71;92.62;99711.63;409775;24;1371;-76
2022/06/27 00:31:58;;;;;;;362.98;258.50;;;;;;;21.72;92.60;99713.31;409899;24;826;-76
2022/06/27 00:32:08;;;;;;;363.37;260.23;;;;;;;21.72;92.60;99708.84;409865;24;889;-76
2022/06/27 00:32:19;;;;;;;363.02;259.27;;;;;;;21.71;93.06;99711.63;409804;24;1320;-76
2022/06/27 00:32:29;;;;;;;363.70;259.30;;;;;;;21.70;92.65;99716.13;411798;24;1308;-76
2022/06/27 00:32:40;;;;;;;364.20;258.55;;;;;;;21.73;92.82;99715.00;411486;24;838;-76
2022/06/27 00:32:50;;;;;;;366.27;258.83;;;;;;;21.71;92.75;99708.97;409901;24;929;-76
2022/06/27 00:33:01;;;;;;;367.70;260.10;;;;;;;21.73;92.83;99715.00;408067;24;806;-76
2022/06/27 00:33:11;;;;;;;367.97;261.20;;;;;;;21.73;92.49;99715.00;406026;24;1297;-76
2022/06/27 00:33:21;;;;;;;367.45;261.08;;;;;;;21.74;92.55;99714.03;406170;24;857;-76
2022/06/27 00:33:32;;;;;;;364.50;256.70;;;;;;;21.73;92.44;99707.03;406037;24;927;-76
2022/06/27 00:33:42;;;;;;;365.17;259.13;;;;;;;21.72;92.56;99705.34;406122;24;890;-76
2022/06/27 00:33:53;;;;;;;367.80;261.77;;;;;;;21.71;92.47;99700.97;406036;24;791;-76
2022/06/27 00:34:03;;;;;;;369.33;262.40;;;;;;;21.72;92.59;99718.66;409650;24;1447;-76
2022/06/27 00:34:13;;;;;;;371.88;265.02;;;;;;;21.72;92.93;99710.66;407998;24;867;-76
2022/06/27 00:34:24;;;;;;;370.10;263.27;;;;;;;21.71;92.77;99714.31;409808;24;1312;-76
2022/06/27 00:34:34;;;;;;;368.90;265.02;;;;;;;21.70;92.36;99713.44;407790;24;1221;-76
2022/06/27 00:34:45;;;;;;;364.70;258.13;;;;;;;21.72;92.44;99716.00;411729;23;1421;-76
2022/06/27 00:34:55;;;;;;;365.73;262.88;;;;;;;21.71;92.74;99716.97;408735;24;844;-76
2022/06/27 00:35:06;;;;;;;366.27;261.27;;;;;;;21.71;92.51;99706.31;411479;24;1212;-76
2022/06/27 00:35:16;;;;;;;369.80;267.13;;;;;;;21.71;92.62;99711.63;411642;24;1282;-76
2022/06/27 00:35:27;;;;;;;368.37;263.13;;;;;;;21.71;92.36;99714.31;411683;24;877;-76
2022/06/27 00:35:37;;;;;;;368.63;264.77;;;;;;;21.70;92.59;99715.28;411594;24;726;-76
2022/06/27 00:35:49;;;;;;;364.73;259.77;;;;;;;21.69;92.50;99710.91;411626;24;817;-76
2022/06/27 00:36:00;;;;;;;366.05;259.05;;;;;;;21.67;92.86;99712.88;411258;24;882;-76
2022/06/27 00:36:10;;;;;;;366.65;261.27;;;;;;;21.67;92.62;99716.38;409883;24;896;-76
2022/06/27 00:36:21;;;;;;;369.40;261.57;;;;;;;21.69;92.97;99708.25;411712;24;1247;-76
2022/06/27 00:36:31;;;;;;;369.40;265.33;;;;;;;21.70;92.48;99712.59;411870;24;909;-76
2022/06/27 00:36:42;;;;;;;366.33;263.93;;;;;;;21.69;92.81;99713.59;411806;24;818;-76
2022/06/27 00:36:52;;;;;;;366.40;265.40;;;;;;;21.69;93.16;99714.44;407967;24;879;-76
2022/06/27 00:37:03;;;;;;;366.33;262.00;;;;;;;21.69;93.03;99713.59;409972;24;997;-76
2022/06/27 00:37:13;;;;;;;365.73;260.92;;;;;;;21.69;92.70;99708.25;411822;24;866;-76
2022/06/27 00:37:24;;;;;;;363.48;260.10;;;;;;;21.68;92.99;99711.91;411673;24;824;-76
2022/06/27 00:37:34;;;;;;;368.20;266.63;;;;;;;21.69;92.88;99713.59;411583;24;1206;-76
2022/06/27 00:37:45;;;;;;;369.58;265.75;;;;;;;21.69;92.59;99713.59;411791;24;830;-76
2022/06/27 00:37:55;;;;;;;370.20;266.27;;;;;;;21.68;92.90;99710.06;411771;24;938;-76
2022/06/27 00:38:08;;;;;;;366.63;263.45;;;;;;;21.69;92.49;99711.75;409765;24;1443;-76
2022/06/27 00:38:19;;;;;;;369.13;267.40;;;;;;;21.68;92.79;99711.91;411638;24;832;-76
2022/06/27 00:38:29;;;;;;;370.97;267.07;;;;;;;21.68;92.82;99714.56;411830;24;1214;-76
2022/06/27 00:38:40;;;;;;;369.83;266.92;;;;;;;21.69;93.01;99713.59;409570;24;881;-76
2022/06/27 00:38:50;;;;;;;369.00;269.75;;;;;;;21.69;92.95;99713.59;411593;24;845;-76
2022/06/27 00:39:01;;;;;;;367.17;268.20;;;;;;;21.68;93.11;99717.22;409707;24;1320;-76
2022/06/27 00:39:11;;;;;;;366.37;266.07;;;;;;;21.67;92.94;99707.53;409883;24;1407;-76
2022/06/27 00:39:22;;;;;;;365.13;263.13;;;;;;;21.68;92.63;99711.91;411870;24;798;-76
2022/06/27 00:39:32;;;;;;;365.97;265.97;;;;;;;21.68;93.15;99709.22;411641;24;974;-76
2022/06/27 00:39:42;;;;;;;367.52;269.38;;;;;;;21.70;93.34;99712.59;409790;24;1207;-76
2022/06/27 00:39:53;;;;;;;369.13;267.87;;;;;;;21.70;93.03;99709.94;409770;24;921;-76
2022/06/27 00:40:05;;;;;;;369.00;266.83;;;;;;;21.69;93.52;99710.91;408016;24;799;-76
2022/06/27 00:40:15;;;;;;;367.40;265.02;;;;;;;21.68;93.70;99717.22;407960;24;1284;-76
2022/06/27 00:40:25;;;;;;;363.80;262.23;;;;;;;21.69;93.13;99713.59;406119;24;997;-76
2022/06/27 00:40:36;;;;;;;362.00;260.67;;;;;;;21.67;93.21;99713.72;407970;24;913;-76
2022/06/27 00:40:46;;;;;;;360.50;257.70;;;;;;;21.68;93.14;99717.22;409847;24;988;-76
2022/06/27 00:40:57;;;;;;;360.07;257.27;;;;;;;21.67;93.04;99710.22;411673;24;1207;-76
2022/06/27 00:41:07;;;;;;;359.95;257.05;;;;;;;21.68;93.52;99711.91;407909;24;887;-76
2022/06/27 00:41:18;;;;;;;363.17;260.43;;;;;;;21.68;93.18;99719.88;409919;24;809;-76
2022/06/27 00:41:28;;;;;;;363.77;263.20;;;;;;;21.67;93.20;99719.03;410047;24;847;-76
2022/06/27 00:41:38;;;;;;;363.55;263.25;;;;;;;21.66;93.25;99708.56;409891;24;873;-76
2022/06/27 00:41:49;;;;;;;359.20;262.40;;;;;;;21.66;92.95;99713.88;413819;23;996;-76
2022/06/27 00:41:59;;;;;;;360.48;261.70;;;;;;;21.67;93.24;99720.88;413772;23;774;-76
2022/06/27 00:42:10;;;;;;;364.53;262.93;;;;;;;21.66;93.13;99721.88;409762;24;1270;-76
2022/06/27 00:42:20;;;;;;;369.50;265.17;;;;;;;21.67;93.36;99720.88;411805;24;1277;-76
2022/06/27 00:42:30;;;;;;;369.53;264.27;;;;;;;21.67;93.19;99718.19;411667;24;1547;-76
2022/06/27 00:42:41;;;;;;;367.70;265.10;;;;;;;21.66;93.49;99716.53;411728;24;1414;-76
2022/06/27 00:42:51;;;;;;;365.80;263.90;;;;;;;21.68;93.41;99717.22;409691;24;1294;-76
2022/06/27 00:43:02;;;;;;;365.97;265.40;;;;;;;21.68;93.53;99717.22;409781;24;1266;-76
2022/06/27 00:43:12;;;;;;;366.48;265.48;;;;;;;21.68;93.64;99711.91;409884;24;941;-76
2022/06/27 00:43:22;;;;;;;366.97;267.13;;;;;;;21.67;93.70;99715.53;409967;24;853;-76
2022/06/27 00:43:33;;;;;;;366.65;264.00;;;;;;;21.68;93.29;99718.06;407979;24;897;-76
2022/06/27 00:43:44;;;;;;;367.40;265.30;;;;;;;21.68;93.60;99718.06;407951;24;835;-76
2022/06/27 00:43:54;;;;;;;367.35;262.95;;;;;;;21.68;93.70;99722.56;409724;24;893;-76
2022/06/27 00:44:05;;;;;;;364.60;261.23;;;;;;;21.69;93.70;99724.25;409448;24;1676;-76
2022/06/27 00:44:30;;;;;;;365.60;262.13;;;;;;;21.67;93.41;99715.53;410937;24;771;-78
2022/06/27 00:44:42;;;;;;;368.85;262.50;;;;;;;21.65;93.10;99717.50;411557;24;822;-77
2022/06/27 00:44:52;;;;;;;364.77;256.60;;;;;;;21.63;93.28;99714.97;409642;24;1256;-77
2022/06/27 00:45:03;;;;;;;362.88;255.18;;;;;;;21.64;93.42;99721.16;411615;24;1187;-77
2022/06/27 00:45:13;;;;;;;364.77;261.57;;;;;;;21.63;93.17;99720.31;411786;24;909;-77
2022/06/27 00:45:24;;;;;;;365.87;262.77;;;;;;;21.64;92.89;99718.50;410055;24;833;-77
2022/06/27 00:45:34;;;;;;;366.23;263.30;;;;;;;21.63;93.21;99720.31;409816;24;929;-77
2022/06/27 00:45:45;;;;;;;365.42;260.77;;;;;;;21.64;93.04;99716.66;411970;24;787;-77
2022/06/27 00:45:55;;;;;;;366.57;263.90;;;;;;;21.64;92.78;99721.16;411563;24;1052;-77
2022/06/27 00:46:05;;;;;;;366.00;263.00;;;;;;;21.64;93.12;99716.66;411801;24;1063;-77
2022/06/27 00:46:16;;;;;;;365.87;261.87;;;;;;;21.64;93.41;99715.81;411662;24;818;-77
2022/06/27 00:46:27;;;;;;;364.33;259.97;;;;;;;21.65;93.48;99717.50;409864;24;959;-77
2022/06/27 00:46:38;;;;;;;366.63;264.30;;;;;;;21.66;93.48;99713.88;408001;24;845;-76
2022/06/27 00:46:48;;;;;;;365.58;265.35;;;;;;;21.65;93.35;99717.50;409782;24;1231;-76
2022/06/27 00:46:59;;;;;;;364.73;261.80;;;;;;;21.65;93.59;99721.03;409809;24;1175;-76
2022/06/27 00:47:11;;;;;;;363.05;254.82;;;;;;;21.67;93.65;99715.53;409742;24;857;-76
2022/06/27 00:47:21;;;;;;;364.10;254.77;;;;;;;21.67;93.45;99712.88;411729;24;1385;-76
2022/06/27 00:47:32;;;;;;;364.13;256.80;;;;;;;21.68;93.72;99719.88;409851;24;1220;-76
2022/06/27 00:47:42;;;;;;;363.95;261.63;;;;;;;21.66;93.46;99719.22;409983;24;1004;-76
2022/06/27 00:47:53;;;;;;;364.43;263.03;;;;;;;21.67;93.37;99726.19;409709;24;805;-76
2022/06/27 00:48:04;;;;;;;366.50;266.38;;;;;;;21.66;93.49;99724.53;411592;24;1943;-76
2022/06/27 00:48:14;;;;;;;365.50;263.70;;;;;;;21.65;93.19;99712.19;409944;24;834;-76
2022/06/27 00:48:24;;;;;;;363.47;265.17;;;;;;;21.65;93.46;99717.50;409430;24;1324;-76
2022/06/27 00:48:35;;;;;;;363.95;265.10;;;;;;;21.64;93.50;99715.81;407202;24;1234;-76
2022/06/27 00:48:45;;;;;;;368.20;268.20;;;;;;;21.63;93.47;99714.97;409853;24;858;-76
2022/06/27 00:48:56;;;;;;;373.07;268.27;;;;;;;21.64;93.35;99716.66;409844;24;864;-76
2022/06/27 00:49:06;;;;;;;373.67;269.40;;;;;;;21.66;93.43;99724.53;409867;24;858;-76